Time,TemperatureF,DewpointF,PressureIn,WindDirection,WindDirectionDegrees,WindSpeedMPH,WindSpeedGustMPH,Humidity,HourlyPrecipIn,Conditions,Clouds,dailyrainin,SoftwareType,DateUTC
2013-02-23 00:00:00,36.2,34.1,29.81,NW,307,0.0,3.0,92,0.00,,,0.00,Wunderground v.1.15,2013-02-23 08:00:00,
2013-02-23 00:05:00,36.1,34.0,29.81,NNW,339,0.0,3.0,92,0.00,,,0.00,Wunderground v.1.15,2013-02-23 08:05:00,
2013-02-23 00:11:00,36.0,33.9,29.81,North,355,0.0,3.0,92,0.00,,,0.00,Wunderground v.1.15,2013-02-23 08:11:00,
2013-02-23 00:17:00,35.8,33.7,29.81,North,11,0.0,3.0,92,0.00,,,0.00,Wunderground v.1.15,2013-02-23 08:17:00,
2013-02-23 00:22:00,35.6,33.5,29.80,North,5,1.0,3.0,92,0.00,,,0.00,Wunderground v.1.15,2013-02-23 08:22:00,
2013-02-23 00:28:00,35.6,33.5,29.80,North,355,2.0,4.0,92,0.00,,,0.00,Wunderground v.1.15,2013-02-23 08:28:00,
2013-02-23 00:34:00,35.5,33.4,29.80,North,355,2.0,3.0,92,0.00,,,0.00,Wunderground v.1.15,2013-02-23 08:34:00,
2013-02-23 00:39:00,35.5,33.7,29.80,North,355,1.0,3.0,93,0.00,,,0.00,Wunderground v.1.15,2013-02-23 08:39:00,
2013-02-23 00:45:00,35.4,33.6,29.80,North,355,0.0,3.0,93,0.00,,,0.00,Wunderground v.1.15,2013-02-23 08:45:00,
2013-02-23 00:51:00,35.3,33.5,29.80,North,355,0.0,3.0,93,0.00,,,0.00,Wunderground v.1.15,2013-02-23 08:51:00,
2013-02-23 00:56:00,35.1,33.0,29.80,North,355,0.0,3.0,92,0.00,,,0.00,Wunderground v.1.15,2013-02-23 08:56:00,
2013-02-23 01:02:00,34.9,32.8,29.80,NE,42,0.0,3.0,92,0.00,,,0.00,Wunderground v.1.15,2013-02-23 09:02:00,
2013-02-23 01:07:00,35.0,33.2,29.80,NE,43,0.0,3.0,93,0.00,,,0.00,Wunderground v.1.15,2013-02-23 09:07:00,
2013-02-23 01:12:00,35.0,33.2,29.80,NE,35,0.0,3.0,93,0.00,,,0.00,Wunderground v.1.15,2013-02-23 09:12:00,
2013-02-23 01:18:00,34.9,33.1,29.80,NE,37,0.0,3.0,93,0.00,,,0.00,Wunderground v.1.15,2013-02-23 09:18:00,
2013-02-23 01:23:00,35.0,33.2,29.80,NNE,32,0.0,3.0,93,0.00,,,0.00,Wunderground v.1.15,2013-02-23 09:23:00,
2013-02-23 01:28:00,34.8,33.0,29.79,North,5,1.0,3.0,93,0.00,,,0.00,Wunderground v.1.15,2013-02-23 09:28:00,
2013-02-23 01:33:00,34.9,33.1,29.79,NNE,19,2.0,4.0,93,0.00,,,0.00,Wunderground v.1.15,2013-02-23 09:33:00,
2013-02-23 01:39:00,35.4,33.8,29.78,NNE,28,2.0,4.0,94,0.00,,,0.00,Wunderground v.1.15,2013-02-23 09:39:00,
2013-02-23 01:44:00,35.8,34.2,29.78,NNE,28,2.0,3.0,94,0.00,,,0.00,Wunderground v.1.15,2013-02-23 09:44:00,
2013-02-23 01:49:00,35.9,34.1,29.78,NNE,26,1.0,3.0,93,0.00,,,0.00,Wunderground v.1.15,2013-02-23 09:49:00,
2013-02-23 01:54:00,35.9,34.1,29.78,NNE,25,0.0,3.0,93,0.00,,,0.00,Wunderground v.1.15,2013-02-23 09:54:00,
2013-02-23 01:59:00,35.8,33.7,29.79,NNE,25,0.0,3.0,92,0.00,,,0.00,Wunderground v.1.15,2013-02-23 09:59:00,
2013-02-23 02:06:00,35.4,33.3,29.79,NNE,25,0.0,3.0,92,0.00,,,0.00,Wunderground v.1.15,2013-02-23 10:06:00,
2013-02-23 02:12:00,35.3,33.2,29.79,ENE,74,1.0,3.0,92,0.00,,,0.00,Wunderground v.1.15,2013-02-23 10:12:00,
2013-02-23 02:17:00,35.2,33.1,29.79,North,5,1.0,3.0,92,0.00,,,0.00,Wunderground v.1.15,2013-02-23 10:17:00,
2013-02-23 02:23:00,35.1,33.0,29.79,NNE,26,1.0,3.0,92,0.00,,,0.00,Wunderground v.1.15,2013-02-23 10:23:00,
2013-02-23 02:28:00,35.0,32.9,29.78,NNE,29,1.0,3.0,92,0.00,,,0.00,Wunderground v.1.15,2013-02-23 10:28:00,
2013-02-23 02:34:00,34.9,32.8,29.78,NNE,32,0.0,3.0,92,0.00,,,0.00,Wunderground v.1.15,2013-02-23 10:34:00,
2013-02-23 02:40:00,34.8,32.7,29.78,NNE,32,0.0,3.0,92,0.00,,,0.00,Wunderground v.1.15,2013-02-23 10:40:00,
2013-02-23 02:45:00,34.6,32.5,29.78,NNE,32,0.0,3.0,92,0.00,,,0.00,Wunderground v.1.15,2013-02-23 10:45:00,
2013-02-23 02:50:00,34.5,32.4,29.78,NE,38,0.0,3.0,92,0.00,,,0.00,Wunderground v.1.15,2013-02-23 10:50:00,
2013-02-23 02:56:00,34.2,32.1,29.77,NE,56,0.0,3.0,92,0.00,,,0.00,Wunderground v.1.15,2013-02-23 10:56:00,
2013-02-23 03:01:00,34.1,32.0,29.78,NE,48,0.0,3.0,92,0.00,,,0.00,Wunderground v.1.15,2013-02-23 11:01:00,
2013-02-23 03:07:00,34.0,32.2,29.77,NE,39,0.0,3.0,93,0.00,,,0.00,Wunderground v.1.15,2013-02-23 11:07:00,
2013-02-23 03:12:00,34.3,32.5,29.77,ENE,59,1.0,4.0,93,0.00,,,0.00,Wunderground v.1.15,2013-02-23 11:12:00,
2013-02-23 03:18:00,35.2,33.6,29.77,ENE,76,2.0,5.0,94,0.00,,,0.00,Wunderground v.1.15,2013-02-23 11:18:00,
2013-02-23 03:23:00,35.9,34.1,29.77,ENE,61,3.0,5.0,93,0.00,,,0.00,Wunderground v.1.15,2013-02-23 11:23:00,
2013-02-23 03:28:00,36.5,33.8,29.76,ENE,70,2.0,5.0,90,0.00,,,0.00,Wunderground v.1.15,2013-02-23 11:28:00,
2013-02-23 03:34:00,36.6,33.7,29.76,NNE,33,1.0,3.0,89,0.00,,,0.00,Wunderground v.1.15,2013-02-23 11:34:00,
2013-02-23 03:40:00,36.4,33.5,29.75,ENE,67,1.0,3.0,89,0.00,,,0.00,Wunderground v.1.15,2013-02-23 11:40:00,
2013-02-23 03:45:00,36.2,33.3,29.75,NE,51,0.0,3.0,89,0.00,,,0.00,Wunderground v.1.15,2013-02-23 11:45:00,
2013-02-23 03:50:00,35.8,32.6,29.76,NE,44,0.0,3.0,88,0.00,,,0.00,Wunderground v.1.15,2013-02-23 11:50:00,
2013-02-23 03:55:00,35.3,32.1,29.75,North,355,1.0,3.0,88,0.00,,,0.00,Wunderground v.1.15,2013-02-23 11:55:00,
2013-02-23 04:00:00,34.9,32.0,29.75,North,350,1.0,1.0,89,0.00,,,0.00,Wunderground v.1.15,2013-02-23 12:00:00,
2013-02-23 04:06:00,34.7,32.1,29.75,ESE,118,0.0,3.0,90,0.00,,,0.00,Wunderground v.1.15,2013-02-23 12:06:00,
2013-02-23 04:11:00,34.6,32.0,29.75,NE,52,0.0,3.0,90,0.00,,,0.00,Wunderground v.1.15,2013-02-23 12:11:00,
2013-02-23 04:17:00,34.4,31.8,29.75,NE,44,1.0,3.0,90,0.00,,,0.00,Wunderground v.1.15,2013-02-23 12:17:00,
2013-02-23 04:22:00,34.3,31.9,29.75,NE,43,1.0,3.0,91,0.00,,,0.00,Wunderground v.1.15,2013-02-23 12:22:00,
2013-02-23 04:28:00,34.2,31.6,29.74,NE,43,0.0,3.0,90,0.00,,,0.00,Wunderground v.1.15,2013-02-23 12:28:00,
2013-02-23 04:34:00,33.9,31.3,29.74,NNE,30,1.0,3.0,90,0.00,,,0.00,Wunderground v.1.15,2013-02-23 12:34:00,
2013-02-23 04:39:00,33.7,31.4,29.75,ENE,57,1.0,1.0,91,0.00,,,0.00,Wunderground v.1.15,2013-02-23 12:39:00,
2013-02-23 04:45:00,33.6,31.3,29.75,ENE,66,0.0,3.0,91,0.00,,,0.00,Wunderground v.1.15,2013-02-23 12:45:00,
2013-02-23 04:51:00,33.5,31.2,29.75,East,79,0.0,3.0,91,0.00,,,0.00,Wunderground v.1.15,2013-02-23 12:51:00,
2013-02-23 04:56:00,33.3,31.0,29.75,North,349,0.0,3.0,91,0.00,,,0.00,Wunderground v.1.15,2013-02-23 12:56:00,
2013-02-23 05:02:00,33.0,30.7,29.75,North,355,1.0,3.0,91,0.00,,,0.00,Wunderground v.1.15,2013-02-23 13:02:00,
2013-02-23 05:07:00,33.1,31.0,29.74,North,5,2.0,3.0,92,0.00,,,0.00,Wunderground v.1.15,2013-02-23 13:07:00,
2013-02-23 05:13:00,33.5,31.4,29.74,NNE,20,1.0,3.0,92,0.00,,,0.00,Wunderground v.1.15,2013-02-23 13:13:00,
2013-02-23 05:19:00,33.5,31.4,29.74,NNE,17,1.0,3.0,92,0.00,,,0.00,Wunderground v.1.15,2013-02-23 13:19:00,
2013-02-23 05:25:00,33.6,31.5,29.74,ENE,57,1.0,3.0,92,0.00,,,0.00,Wunderground v.1.15,2013-02-23 13:25:00,
2013-02-23 05:30:00,33.6,31.5,29.74,NE,34,1.0,3.0,92,0.00,,,0.00,Wunderground v.1.15,2013-02-23 13:30:00,
2013-02-23 05:35:00,33.4,31.1,29.74,NNW,340,1.0,3.0,91,0.00,,,0.00,Wunderground v.1.15,2013-02-23 13:35:00,
2013-02-23 05:41:00,33.1,30.8,29.74,North,5,1.0,3.0,91,0.00,,,0.00,Wunderground v.1.15,2013-02-23 13:41:00,
2013-02-23 05:47:00,32.9,30.6,29.75,North,5,0.0,3.0,91,0.00,,,0.00,Wunderground v.1.15,2013-02-23 13:47:00,
2013-02-23 05:52:00,33.0,30.9,29.75,ENE,71,1.0,3.0,92,0.00,,,0.00,Wunderground v.1.15,2013-02-23 13:52:00,
2013-02-23 05:57:00,33.6,31.5,29.75,SSE,155,1.0,3.0,92,0.00,,,0.00,Wunderground v.1.15,2013-02-23 13:57:00,
2013-02-23 06:03:00,34.1,31.7,29.76,SE,135,1.0,3.0,91,0.00,,,0.00,Wunderground v.1.15,2013-02-23 14:03:00,
2013-02-23 06:09:00,34.1,31.5,29.76,North,9,1.0,3.0,90,0.00,,,0.00,Wunderground v.1.15,2013-02-23 14:09:00,
2013-02-23 06:14:00,33.8,31.2,29.75,North,360,1.0,3.0,90,0.00,,,0.00,Wunderground v.1.15,2013-02-23 14:14:00,
2013-02-23 06:19:00,33.5,30.9,29.76,North,360,1.0,1.0,90,0.00,,,0.00,Wunderground v.1.15,2013-02-23 14:19:00,
2013-02-23 06:24:00,33.3,30.7,29.75,North,360,0.0,3.0,90,0.00,,,0.00,Wunderground v.1.15,2013-02-23 14:24:00,
2013-02-23 06:30:00,33.0,30.7,29.75,North,360,0.0,3.0,91,0.00,,,0.00,Wunderground v.1.15,2013-02-23 14:30:00,
2013-02-23 06:36:00,32.8,30.5,29.75,East,82,0.0,3.0,91,0.00,,,0.00,Wunderground v.1.15,2013-02-23 14:36:00,
2013-02-23 06:42:00,32.7,30.4,29.75,North,355,0.0,3.0,91,0.00,,,0.00,Wunderground v.1.15,2013-02-23 14:42:00,
2013-02-23 06:48:00,32.5,30.2,29.75,North,355,0.0,3.0,91,0.00,,,0.00,Wunderground v.1.15,2013-02-23 14:48:00,
2013-02-23 06:54:00,32.5,30.4,29.76,North,355,0.0,3.0,92,0.00,,,0.00,Wunderground v.1.15,2013-02-23 14:54:00,
2013-02-23 07:01:00,32.4,30.3,29.75,ESE,107,0.0,3.0,92,0.00,,,0.00,Wunderground v.1.15,2013-02-23 15:01:00,
2013-02-23 07:07:00,32.8,31.0,29.76,NW,314,0.0,3.0,93,0.00,,,0.00,Wunderground v.1.15,2013-02-23 15:07:00,
2013-02-23 07:12:00,32.9,31.1,29.76,NW,316,0.0,3.0,93,0.00,,,0.00,Wunderground v.1.15,2013-02-23 15:12:00,
2013-02-23 07:17:00,33.2,31.4,29.76,NNW,339,0.0,3.0,93,0.00,,,0.00,Wunderground v.1.15,2013-02-23 15:17:00,
2013-02-23 07:23:00,33.6,31.8,29.76,NNW,347,0.0,3.0,93,0.00,,,0.00,Wunderground v.1.15,2013-02-23 15:23:00,
2013-02-23 07:29:00,34.0,32.5,29.76,North,11,1.0,4.0,94,0.00,,,0.00,Wunderground v.1.15,2013-02-23 15:29:00,
2013-02-23 07:35:00,34.9,33.3,29.76,NE,42,2.0,6.0,94,0.00,,,0.00,Wunderground v.1.15,2013-02-23 15:35:00,
2013-02-23 07:41:00,36.1,34.0,29.76,ENE,64,1.0,3.0,92,0.00,,,0.00,Wunderground v.1.15,2013-02-23 15:41:00,
2013-02-23 07:46:00,37.1,34.4,29.76,ESE,112,1.0,3.0,90,0.00,,,0.00,Wunderground v.1.15,2013-02-23 15:46:00,
2013-02-23 07:51:00,38.2,34.7,29.76,East,93,1.0,3.0,87,0.00,,,0.00,Wunderground v.1.15,2013-02-23 15:51:00,
2013-02-23 07:57:00,39.2,35.1,29.75,NNE,27,2.0,4.0,85,0.00,,,0.00,Wunderground v.1.15,2013-02-23 15:57:00,
2013-02-23 08:02:00,39.9,35.2,29.75,ESE,106,1.0,3.0,83,0.00,,,0.00,Wunderground v.1.15,2013-02-23 16:02:00,
2013-02-23 08:07:00,40.8,35.4,29.75,ENE,61,1.0,3.0,81,0.00,,,0.00,Wunderground v.1.15,2013-02-23 16:07:00,
2013-02-23 08:12:00,41.3,35.6,29.75,ENE,66,1.0,3.0,80,0.00,,,0.00,Wunderground v.1.15,2013-02-23 16:12:00,
2013-02-23 08:17:00,42.1,36.1,29.75,East,94,2.0,3.0,79,0.00,,,0.00,Wunderground v.1.15,2013-02-23 16:17:00,
2013-02-23 08:23:00,43.2,36.1,29.75,ENE,60,2.0,3.0,76,0.00,,,0.00,Wunderground v.1.15,2013-02-23 16:23:00,
2013-02-23 08:29:00,44.5,36.0,29.75,SE,132,1.0,3.0,72,0.00,,,0.00,Wunderground v.1.15,2013-02-23 16:29:00,
2013-02-23 08:34:00,45.4,36.2,29.75,SE,137,1.0,4.0,70,0.00,,,0.00,Wunderground v.1.15,2013-02-23 16:34:00,
2013-02-23 08:40:00,46.1,36.9,29.75,ENE,63,1.0,3.0,70,0.00,,,0.00,Wunderground v.1.15,2013-02-23 16:40:00,
2013-02-23 08:46:00,47.2,36.0,29.74,NE,51,1.0,3.0,65,0.00,,,0.00,Wunderground v.1.15,2013-02-23 16:46:00,
2013-02-23 08:52:00,48.6,36.2,29.74,NNE,26,1.0,3.0,62,0.00,,,0.00,Wunderground v.1.15,2013-02-23 16:52:00,
2013-02-23 08:57:00,49.6,35.8,29.74,ENE,75,1.0,3.0,59,0.00,,,0.00,Wunderground v.1.15,2013-02-23 16:57:00,
2013-02-23 09:03:00,50.7,36.5,29.74,SSE,147,1.0,3.0,58,0.00,,,0.00,Wunderground v.1.15,2013-02-23 17:03:00,
2013-02-23 09:09:00,51.3,36.1,29.74,ESE,120,1.0,3.0,56,0.00,,,0.00,Wunderground v.1.15,2013-02-23 17:09:00,
2013-02-23 09:15:00,51.9,35.3,29.74,SE,132,2.0,3.0,53,0.00,,,0.00,Wunderground v.1.15,2013-02-23 17:15:00,
2013-02-23 09:21:00,52.5,35.4,29.74,SE,128,2.0,3.0,52,0.00,,,0.00,Wunderground v.1.15,2013-02-23 17:21:00,
2013-02-23 09:26:00,52.8,35.2,29.74,ESE,109,1.0,3.0,51,0.00,,,0.00,Wunderground v.1.15,2013-02-23 17:26:00,
2013-02-23 09:32:00,53.3,35.1,29.74,SSE,152,1.0,3.0,50,0.00,,,0.00,Wunderground v.1.15,2013-02-23 17:32:00,
2013-02-23 09:38:00,53.9,35.2,29.74,East,82,1.0,3.0,49,0.00,,,0.00,Wunderground v.1.15,2013-02-23 17:38:00,
2013-02-23 09:44:00,54.6,35.8,29.73,South,183,1.0,4.0,49,0.00,,,0.00,Wunderground v.1.15,2013-02-23 17:44:00,
2013-02-23 09:50:00,54.6,34.2,29.74,South,184,2.0,2.0,46,0.00,,,0.00,Wunderground v.1.15,2013-02-23 17:50:00,
2013-02-23 09:55:00,54.6,34.2,29.73,SSW,193,1.0,3.0,46,0.00,,,0.00,Wunderground v.1.15,2013-02-23 17:55:00,
2013-02-23 10:01:00,55.2,34.2,29.73,SE,143,1.0,3.0,45,0.00,,,0.00,Wunderground v.1.15,2013-02-23 18:01:00,
2013-02-23 10:07:00,55.8,35.9,29.72,SW,214,1.0,3.0,47,0.00,,,0.00,Wunderground v.1.15,2013-02-23 18:07:00,
2013-02-23 10:13:00,56.5,34.3,29.72,South,171,2.0,4.0,43,0.00,,,0.00,Wunderground v.1.15,2013-02-23 18:13:00,
2013-02-23 10:19:00,56.9,34.0,29.72,NNE,25,1.0,4.0,42,0.00,,,0.00,Wunderground v.1.15,2013-02-23 18:19:00,
2013-02-23 10:25:00,57.2,34.9,29.72,SSE,153,2.0,4.0,43,0.00,,,0.00,Wunderground v.1.15,2013-02-23 18:25:00,
2013-02-23 10:31:00,57.3,35.6,29.72,ENE,73,2.0,3.0,44,0.00,,,0.00,Wunderground v.1.15,2013-02-23 18:31:00,
2013-02-23 10:37:00,58.3,37.0,29.72,WNW,288,1.0,3.0,45,0.00,,,0.00,Wunderground v.1.15,2013-02-23 18:37:00,
2013-02-23 10:43:00,58.8,38.1,29.71,South,173,1.0,4.0,46,0.00,,,0.00,Wunderground v.1.15,2013-02-23 18:43:00,
2013-02-23 10:48:00,59.2,39.0,29.71,South,182,2.0,4.0,47,0.00,,,0.00,Wunderground v.1.15,2013-02-23 18:48:00,
2013-02-23 10:53:00,59.7,38.3,29.70,South,181,2.0,3.0,45,0.00,,,0.00,Wunderground v.1.15,2013-02-23 18:53:00,
2013-02-23 10:59:00,59.9,39.1,29.70,SW,225,2.0,3.0,46,0.00,,,0.00,Wunderground v.1.15,2013-02-23 18:59:00,
2013-02-23 11:05:00,60.5,40.7,29.70,WSW,242,1.0,4.0,48,0.00,,,0.00,Wunderground v.1.15,2013-02-23 19:05:00,
2013-02-23 11:11:00,60.8,39.9,29.70,SSW,210,3.0,6.0,46,0.00,,,0.00,Wunderground v.1.15,2013-02-23 19:11:00,
2013-02-23 11:16:00,61.0,40.1,29.69,South,186,3.0,6.0,46,0.00,,,0.00,Wunderground v.1.15,2013-02-23 19:16:00,
2013-02-23 11:22:00,61.4,41.0,29.69,SSW,202,3.0,5.0,47,0.00,,,0.00,Wunderground v.1.15,2013-02-23 19:22:00,
2013-02-23 11:28:00,61.6,40.0,29.68,SW,232,4.0,9.0,45,0.00,,,0.00,Wunderground v.1.15,2013-02-23 19:28:00,
2013-02-23 11:33:00,61.6,40.0,29.68,WSW,240,5.0,5.0,45,0.00,,,0.00,Wunderground v.1.15,2013-02-23 19:33:00,
2013-02-23 11:38:00,61.7,39.0,29.68,West,271,5.0,8.0,43,0.00,,,0.00,Wunderground v.1.15,2013-02-23 19:38:00,
2013-02-23 11:43:00,61.6,41.2,29.68,South,174,5.0,5.0,47,0.00,,,0.00,Wunderground v.1.15,2013-02-23 19:43:00,
2013-02-23 11:49:00,61.9,40.3,29.67,SSE,168,5.0,5.0,45,0.00,,,0.00,Wunderground v.1.15,2013-02-23 19:49:00,
2013-02-23 11:55:00,62.4,40.2,29.67,SW,229,5.0,7.0,44,0.00,,,0.00,Wunderground v.1.15,2013-02-23 19:55:00,
2013-02-23 12:00:00,62.5,38.5,29.67,SSW,194,5.0,5.0,41,0.00,,,0.00,Wunderground v.1.15,2013-02-23 20:00:00,
2013-02-23 12:05:00,62.7,39.9,29.66,SSW,193,4.0,5.0,43,0.00,,,0.00,Wunderground v.1.15,2013-02-23 20:05:00,
2013-02-23 12:11:00,62.9,41.2,29.65,SSE,159,3.0,4.0,45,0.00,,,0.00,Wunderground v.1.15,2013-02-23 20:11:00,
2013-02-23 12:17:00,63.2,39.7,29.65,WSW,250,3.0,7.0,42,0.00,,,0.00,Wunderground v.1.15,2013-02-23 20:17:00,
2013-02-23 12:22:00,63.5,39.4,29.64,SW,224,4.0,8.0,41,0.00,,,0.00,Wunderground v.1.15,2013-02-23 20:22:00,
2013-02-23 12:28:00,63.4,40.5,29.64,NW,305,4.0,8.0,43,0.00,,,0.00,Wunderground v.1.15,2013-02-23 20:28:00,
2013-02-23 12:34:00,64.0,41.0,29.64,West,266,3.0,4.0,43,0.00,,,0.00,Wunderground v.1.15,2013-02-23 20:34:00,
2013-02-23 12:40:00,64.4,42.0,29.63,WSW,238,3.0,3.0,44,0.00,,,0.00,Wunderground v.1.15,2013-02-23 20:40:00,
2013-02-23 12:45:00,64.4,42.0,29.62,SW,229,4.0,6.0,44,0.00,,,0.00,Wunderground v.1.15,2013-02-23 20:45:00,
2013-02-23 12:50:00,64.7,44.0,29.62,WSW,243,4.0,5.0,47,0.00,,,0.00,Wunderground v.1.15,2013-02-23 20:50:00,
2013-02-23 12:56:00,64.8,43.5,29.62,SW,234,4.0,6.0,46,0.00,,,0.00,Wunderground v.1.15,2013-02-23 20:56:00,
2013-02-23 13:01:00,64.5,44.4,29.61,WSW,243,4.0,6.0,48,0.00,,,0.00,Wunderground v.1.15,2013-02-23 21:01:00,
2013-02-23 13:06:00,64.3,44.2,29.61,WSW,246,5.0,10.0,48,0.00,,,0.00,Wunderground v.1.15,2013-02-23 21:06:00,
2013-02-23 13:12:00,64.2,43.5,29.60,SW,234,5.0,7.0,47,0.00,,,0.00,Wunderground v.1.15,2013-02-23 21:12:00,
2013-02-23 13:17:00,64.3,44.2,29.60,West,262,5.0,7.0,48,0.00,,,0.00,Wunderground v.1.15,2013-02-23 21:17:00,
2013-02-23 13:22:00,64.5,43.8,29.60,WSW,240,5.0,10.0,47,0.00,,,0.00,Wunderground v.1.15,2013-02-23 21:22:00,
2013-02-23 13:28:00,64.8,45.2,29.60,WSW,246,5.0,10.0,49,0.00,,,0.00,Wunderground v.1.15,2013-02-23 21:28:00,
2013-02-23 13:34:00,64.5,44.4,29.59,WSW,256,5.0,10.0,48,0.00,,,0.00,Wunderground v.1.15,2013-02-23 21:34:00,
2013-02-23 13:40:00,64.5,44.9,29.59,SW,217,6.0,6.0,49,0.00,,,0.00,Wunderground v.1.15,2013-02-23 21:40:00,
2013-02-23 13:45:00,64.4,44.3,29.58,SW,229,6.0,8.0,48,0.00,,,0.00,Wunderground v.1.15,2013-02-23 21:45:00,
2013-02-23 13:50:00,64.5,44.9,29.58,WSW,240,5.0,7.0,49,0.00,,,0.00,Wunderground v.1.15,2013-02-23 21:50:00,
2013-02-23 13:55:00,64.6,45.5,29.58,SSW,200,5.0,7.0,50,0.00,,,0.00,Wunderground v.1.15,2013-02-23 21:55:00,
2013-02-23 14:00:00,64.6,44.5,29.58,SSW,204,4.0,6.0,48,0.00,,,0.00,Wunderground v.1.15,2013-02-23 22:00:00,
2013-02-23 14:05:00,65.0,44.8,29.58,SSW,206,4.0,8.0,48,0.00,,,0.00,Wunderground v.1.15,2013-02-23 22:05:00,
2013-02-23 14:12:00,65.0,44.3,29.58,West,261,5.0,7.0,47,0.00,,,0.00,Wunderground v.1.15,2013-02-23 22:12:00,
2013-02-23 14:17:00,65.2,45.0,29.57,WSW,249,5.0,7.0,48,0.00,,,0.00,Wunderground v.1.15,2013-02-23 22:17:00,
2013-02-23 14:22:00,65.4,45.2,29.57,SSW,199,4.0,5.0,48,0.00,,,0.00,Wunderground v.1.15,2013-02-23 22:22:00,
2013-02-23 14:28:00,65.5,45.8,29.57,SSW,204,3.0,6.0,49,0.00,,,0.00,Wunderground v.1.15,2013-02-23 22:28:00,
2013-02-23 14:33:00,65.0,45.4,29.57,South,186,3.0,4.0,49,0.00,,,0.00,Wunderground v.1.15,2013-02-23 22:33:00,
2013-02-23 14:39:00,65.0,45.4,29.57,SW,217,3.0,6.0,49,0.00,,,0.00,Wunderground v.1.15,2013-02-23 22:39:00,
2013-02-23 14:44:00,65.1,45.5,29.56,SW,232,3.0,4.0,49,0.00,,,0.00,Wunderground v.1.15,2013-02-23 22:44:00,
2013-02-23 14:49:00,65.1,47.0,29.56,SW,216,4.0,8.0,52,0.00,,,0.00,Wunderground v.1.15,2013-02-23 22:49:00,
2013-02-23 14:55:00,64.9,48.3,29.56,SSW,209,4.0,7.0,55,0.00,,,0.00,Wunderground v.1.15,2013-02-23 22:55:00,
2013-02-23 15:00:00,64.2,48.2,29.56,West,259,5.0,5.0,56,0.00,,,0.00,Wunderground v.1.15,2013-02-23 23:00:00,
2013-02-23 15:06:00,63.9,48.8,29.56,SSW,205,6.0,7.0,58,0.00,,,0.00,Wunderground v.1.15,2013-02-23 23:06:00,
2013-02-23 15:12:00,63.8,48.7,29.55,WSW,250,5.0,8.0,58,0.00,,,0.00,Wunderground v.1.15,2013-02-23 23:12:00,
2013-02-23 15:18:00,63.6,49.0,29.55,WSW,242,5.0,8.0,59,0.00,,,0.00,Wunderground v.1.15,2013-02-23 23:18:00,
2013-02-23 15:24:00,63.6,48.5,29.55,WSW,238,4.0,6.0,58,0.00,,,0.00,Wunderground v.1.15,2013-02-23 23:24:00,
2013-02-23 15:29:00,63.9,48.8,29.55,WSW,248,4.0,4.0,58,0.00,,,0.00,Wunderground v.1.15,2013-02-23 23:29:00,
2013-02-23 15:35:00,63.9,48.8,29.55,SW,231,4.0,5.0,58,0.00,,,0.00,Wunderground v.1.15,2013-02-23 23:35:00,
2013-02-23 15:40:00,63.8,48.7,29.55,WNW,302,3.0,3.0,58,0.00,,,0.00,Wunderground v.1.15,2013-02-23 23:40:00,
2013-02-23 15:45:00,63.7,48.6,29.55,SW,219,4.0,5.0,58,0.00,,,0.00,Wunderground v.1.15,2013-02-23 23:45:00,
2013-02-23 15:52:00,63.7,48.6,29.54,SW,236,4.0,5.0,58,0.00,,,0.00,Wunderground v.1.15,2013-02-23 23:52:00,
2013-02-23 15:58:00,63.6,49.0,29.55,West,259,4.0,5.0,59,0.00,,,0.00,Wunderground v.1.15,2013-02-23 23:58:00,
2013-02-23 16:04:00,63.7,48.6,29.54,SW,219,3.0,5.0,58,0.00,,,0.00,Wunderground v.1.15,2013-02-24 00:04:00,
2013-02-23 16:10:00,63.8,48.7,29.54,WSW,257,2.0,2.0,58,0.00,,,0.00,Wunderground v.1.15,2013-02-24 00:10:00,
2013-02-23 16:15:00,63.9,48.8,29.54,WSW,245,2.0,4.0,58,0.00,,,0.00,Wunderground v.1.15,2013-02-24 00:15:00,
2013-02-23 16:21:00,63.6,48.5,29.54,SSW,210,2.0,3.0,58,0.00,,,0.00,Wunderground v.1.15,2013-02-24 00:21:00,
2013-02-23 16:27:00,63.4,48.8,29.54,SW,222,1.0,4.0,59,0.00,,,0.00,Wunderground v.1.15,2013-02-24 00:27:00,
2013-02-23 16:32:00,63.1,48.5,29.54,WSW,257,2.0,4.0,59,0.00,,,0.00,Wunderground v.1.15,2013-02-24 00:32:00,
2013-02-23 16:37:00,62.8,48.7,29.53,WSW,253,2.0,4.0,60,0.00,,,0.00,Wunderground v.1.15,2013-02-24 00:37:00,
2013-02-23 16:43:00,62.3,48.7,29.53,SW,236,1.0,5.0,61,0.00,,,0.00,Wunderground v.1.15,2013-02-24 00:43:00,
2013-02-23 16:48:00,61.8,48.6,29.53,SW,224,2.0,5.0,62,0.00,,,0.00,Wunderground v.1.15,2013-02-24 00:48:00,
2013-02-23 16:53:00,61.5,48.8,29.54,West,265,2.0,3.0,63,0.00,,,0.00,Wunderground v.1.15,2013-02-24 00:53:00,
2013-02-23 16:59:00,61.2,48.5,29.54,WSW,245,2.0,3.0,63,0.00,,,0.00,Wunderground v.1.15,2013-02-24 00:59:00,
2013-02-23 17:05:00,60.7,48.9,29.53,WSW,241,2.0,4.0,65,0.00,,,0.00,Wunderground v.1.15,2013-02-24 01:05:00,
2013-02-23 17:10:00,60.4,48.6,29.53,WSW,246,2.0,2.0,65,0.00,,,0.00,Wunderground v.1.15,2013-02-24 01:10:00,
2013-02-23 17:15:00,60.3,48.5,29.53,WSW,245,1.0,3.0,65,0.00,,,0.00,Wunderground v.1.15,2013-02-24 01:15:00,
2013-02-23 17:21:00,60.1,49.1,29.54,WSW,245,0.0,3.0,67,0.00,,,0.00,Wunderground v.1.15,2013-02-24 01:21:00,
2013-02-23 17:26:00,59.6,48.6,29.54,SW,235,0.0,3.0,67,0.00,,,0.00,Wunderground v.1.15,2013-02-24 01:26:00,
2013-02-23 17:31:00,58.8,48.6,29.54,SW,232,1.0,3.0,69,0.00,,,0.00,Wunderground v.1.15,2013-02-24 01:31:00,
2013-02-23 17:36:00,58.1,48.4,29.54,WSW,237,3.0,4.0,70,0.00,,,0.00,Wunderground v.1.15,2013-02-24 01:36:00,
2013-02-23 17:42:00,57.4,48.4,29.54,West,269,3.0,3.0,72,0.00,,,0.00,Wunderground v.1.15,2013-02-24 01:42:00,
2013-02-23 17:47:00,57.0,48.1,29.54,WNW,288,2.0,4.0,72,0.00,,,0.00,Wunderground v.1.15,2013-02-24 01:47:00,
2013-02-23 17:53:00,56.7,48.1,29.55,NNW,337,1.0,3.0,73,0.00,,,0.00,Wunderground v.1.15,2013-02-24 01:53:00,
2013-02-23 17:59:00,56.4,48.2,29.55,NNW,337,0.0,3.0,74,0.00,,,0.00,Wunderground v.1.15,2013-02-24 01:59:00,
2013-02-23 18:04:00,56.0,47.8,29.54,NNW,337,0.0,3.0,74,0.00,,,0.00,Wunderground v.1.15,2013-02-24 02:04:00,
2013-02-23 18:09:00,55.2,47.8,29.55,WSW,250,0.0,3.0,76,0.00,,,0.00,Wunderground v.1.15,2013-02-24 02:09:00,
2013-02-23 18:15:00,54.4,47.3,29.55,WNW,297,0.0,3.0,77,0.00,,,0.00,Wunderground v.1.15,2013-02-24 02:15:00,
2013-02-23 18:21:00,53.5,47.1,29.56,ENE,59,0.0,3.0,79,0.00,,,0.00,Wunderground v.1.15,2013-02-24 02:21:00,
2013-02-23 18:27:00,52.9,46.6,29.56,NNW,338,0.0,3.0,79,0.00,,,0.00,Wunderground v.1.15,2013-02-24 02:27:00,
2013-02-23 18:32:00,52.2,46.5,29.56,NNW,338,0.0,3.0,81,0.00,,,0.00,Wunderground v.1.15,2013-02-24 02:32:00,
2013-02-23 18:38:00,51.7,46.1,29.57,NE,53,0.0,3.0,81,0.00,,,0.00,Wunderground v.1.15,2013-02-24 02:38:00,
2013-02-23 18:44:00,51.3,46.3,29.57,South,190,0.0,3.0,83,0.00,,,0.00,Wunderground v.1.15,2013-02-24 02:44:00,
2013-02-23 18:49:00,50.8,45.8,29.56,NW,311,0.0,3.0,83,0.00,,,0.00,Wunderground v.1.15,2013-02-24 02:49:00,
2013-02-23 18:55:00,50.4,45.7,29.57,NW,311,0.0,3.0,84,0.00,,,0.00,Wunderground v.1.15,2013-02-24 02:55:00,
2013-02-23 19:01:00,49.7,45.1,29.56,NNW,336,1.0,3.0,84,0.00,,,0.00,Wunderground v.1.15,2013-02-24 03:01:00,
2013-02-23 19:06:00,49.1,44.8,29.56,North,360,1.0,3.0,85,0.00,,,0.00,Wunderground v.1.15,2013-02-24 03:06:00,
2013-02-23 19:12:00,48.7,44.4,29.57,NW,313,1.0,3.0,85,0.00,,,0.00,Wunderground v.1.15,2013-02-24 03:12:00,
2013-02-23 19:18:00,48.3,44.3,29.58,NW,325,0.0,3.0,86,0.00,,,0.00,Wunderground v.1.15,2013-02-24 03:18:00,
2013-02-23 19:24:00,48.0,44.3,29.58,North,11,0.0,3.0,87,0.00,,,0.00,Wunderground v.1.15,2013-02-24 03:24:00,
2013-02-23 19:29:00,47.7,44.0,29.58,NNW,331,0.0,3.0,87,0.00,,,0.00,Wunderground v.1.15,2013-02-24 03:29:00,
2013-02-23 19:35:00,47.4,43.7,29.57,NW,305,0.0,3.0,87,0.00,,,0.00,Wunderground v.1.15,2013-02-24 03:35:00,
2013-02-23 19:40:00,47.0,43.3,29.57,NW,307,1.0,1.0,87,0.00,,,0.00,Wunderground v.1.15,2013-02-24 03:40:00,
2013-02-23 19:46:00,46.6,43.2,29.57,NNW,345,0.0,3.0,88,0.00,,,0.00,Wunderground v.1.15,2013-02-24 03:46:00,
2013-02-23 19:52:00,46.3,43.2,29.57,North,355,1.0,3.0,89,0.00,,,0.00,Wunderground v.1.15,2013-02-24 03:52:00,
2013-02-23 19:58:00,46.1,43.0,29.58,North,355,0.0,3.0,89,0.00,,,0.00,Wunderground v.1.15,2013-02-24 03:58:00,
2013-02-23 20:03:00,45.8,42.7,29.58,East,85,0.0,3.0,89,0.00,,,0.00,Wunderground v.1.15,2013-02-24 04:03:00,
2013-02-23 20:09:00,45.6,42.8,29.58,East,85,0.0,3.0,90,0.00,,,0.00,Wunderground v.1.15,2013-02-24 04:09:00,
2013-02-23 20:14:00,45.5,42.7,29.58,East,85,0.0,3.0,90,0.00,,,0.00,Wunderground v.1.15,2013-02-24 04:14:00,
2013-02-23 20:19:00,45.2,42.2,29.59,East,85,0.0,3.0,89,0.00,,,0.00,Wunderground v.1.15,2013-02-24 04:19:00,
2013-02-23 20:25:00,44.7,41.7,29.59,NW,321,0.0,3.0,89,0.00,,,0.00,Wunderground v.1.15,2013-02-24 04:25:00,
2013-02-23 20:30:00,44.4,41.7,29.59,NW,321,0.0,3.0,90,0.00,,,0.00,Wunderground v.1.15,2013-02-24 04:30:00,
2013-02-23 20:35:00,44.1,41.4,29.59,NW,310,0.0,3.0,90,0.00,,,0.00,Wunderground v.1.15,2013-02-24 04:35:00,
2013-02-23 20:41:00,43.7,40.7,29.59,West,269,1.0,3.0,89,0.00,,,0.00,Wunderground v.1.15,2013-02-24 04:41:00,
2013-02-23 20:46:00,43.9,41.4,29.59,WSW,249,1.0,4.0,91,0.00,,,0.00,Wunderground v.1.15,2013-02-24 04:46:00,
2013-02-23 20:51:00,44.5,42.3,29.60,WNW,302,2.0,3.0,92,0.00,,,0.00,Wunderground v.1.15,2013-02-24 04:51:00,
2013-02-23 20:57:00,44.1,41.6,29.60,WNW,298,2.0,4.0,91,0.00,,,0.00,Wunderground v.1.15,2013-02-24 04:57:00,
2013-02-23 21:00:00,43.9,41.2,29.60,WNW,298,1.0,3.0,90,0.00,,,0.00,Wunderground v.1.15,2013-02-24 05:00:00,
2013-02-23 21:01:00,43.9,41.2,29.60,NW,313,1.0,3.0,90,0.00,,,0.00,Wunderground v.1.15,2013-02-24 05:01:00,
2013-02-23 21:02:00,43.8,41.1,29.60,NW,313,1.0,3.0,90,0.00,,,0.00,Wunderground v.1.15,2013-02-24 05:02:00,
2013-02-23 21:03:00,43.7,40.7,29.60,NW,309,1.0,3.0,89,0.00,,,0.00,Wunderground v.1.15,2013-02-24 05:03:00,
2013-02-23 21:09:00,43.2,39.6,29.61,NW,304,1.0,3.0,87,0.00,,,0.00,Wunderground v.1.15,2013-02-24 05:09:00,
2013-02-23 21:14:00,43.0,39.4,29.61,SSE,158,1.0,3.0,87,0.00,,,0.00,Wunderground v.1.15,2013-02-24 05:14:00,
2013-02-23 21:20:00,43.1,39.5,29.61,SSW,203,0.0,3.0,87,0.00,,,0.00,Wunderground v.1.15,2013-02-24 05:20:00,
2013-02-23 21:25:00,43.1,38.9,29.61,NW,314,1.0,4.0,85,0.00,,,0.00,Wunderground v.1.15,2013-02-24 05:25:00,
2013-02-23 21:31:00,43.5,38.1,29.62,WNW,298,2.0,3.0,81,0.00,,,0.00,Wunderground v.1.15,2013-02-24 05:31:00,
2013-02-23 21:36:00,43.6,37.8,29.62,NNW,333,2.0,3.0,80,0.00,,,0.00,Wunderground v.1.15,2013-02-24 05:36:00,
2013-02-23 21:41:00,43.5,37.7,29.62,South,169,1.0,3.0,80,0.00,,,0.00,Wunderground v.1.15,2013-02-24 05:41:00,
2013-02-23 21:46:00,43.6,37.8,29.63,NW,309,1.0,3.0,80,0.00,,,0.00,Wunderground v.1.15,2013-02-24 05:46:00,
2013-02-23 21:52:00,43.3,37.9,29.63,West,280,0.0,3.0,81,0.00,,,0.00,Wunderground v.1.15,2013-02-24 05:52:00,
2013-02-23 21:57:00,42.8,37.4,29.63,NW,313,0.0,3.0,81,0.00,,,0.00,Wunderground v.1.15,2013-02-24 05:57:00,
2013-02-23 22:02:00,42.3,37.2,29.63,WNW,288,0.0,3.0,82,0.00,,,0.00,Wunderground v.1.15,2013-02-24 06:02:00,
2013-02-23 22:08:00,41.8,36.4,29.63,NNW,342,1.0,4.0,81,0.00,,,0.00,Wunderground v.1.15,2013-02-24 06:08:00,
2013-02-23 22:13:00,41.4,36.3,29.63,NNW,336,2.0,3.0,82,0.00,,,0.00,Wunderground v.1.15,2013-02-24 06:13:00,
2013-02-23 22:18:00,41.4,36.3,29.63,North,5,1.0,3.0,82,0.00,,,0.00,Wunderground v.1.15,2013-02-24 06:18:00,
2013-02-23 22:24:00,41.2,36.4,29.64,NE,55,0.0,3.0,83,0.00,,,0.00,Wunderground v.1.15,2013-02-24 06:24:00,
2013-02-23 22:30:00,41.0,36.2,29.63,West,271,0.0,3.0,83,0.00,,,0.00,Wunderground v.1.15,2013-02-24 06:30:00,
2013-02-23 22:35:00,40.7,35.9,29.63,West,271,0.0,3.0,83,0.00,,,0.00,Wunderground v.1.15,2013-02-24 06:35:00,
2013-02-23 22:40:00,40.3,35.5,29.63,WNW,300,1.0,3.0,83,0.00,,,0.00,Wunderground v.1.15,2013-02-24 06:40:00,
2013-02-23 22:46:00,40.1,35.4,29.63,WNW,298,1.0,3.0,83,0.00,,,0.00,Wunderground v.1.15,2013-02-24 06:46:00,
2013-02-23 22:52:00,39.9,35.2,29.63,WNW,298,1.0,3.0,83,0.00,,,0.00,Wunderground v.1.15,2013-02-24 06:52:00,
2013-02-23 22:57:00,39.6,35.2,29.63,WNW,297,0.0,3.0,84,0.00,,,0.00,Wunderground v.1.15,2013-02-24 06:57:00,
2013-02-23 23:02:00,39.6,34.9,29.63,South,186,1.0,4.0,83,0.00,,,0.00,Wunderground v.1.15,2013-02-24 07:02:00,
2013-02-23 23:08:00,39.9,34.9,29.63,SSW,197,1.0,4.0,82,0.00,,,0.00,Wunderground v.1.15,2013-02-24 07:08:00,
2013-02-23 23:13:00,39.7,34.3,29.64,WNW,298,1.0,3.0,81,0.00,,,0.00,Wunderground v.1.15,2013-02-24 07:13:00,
2013-02-23 23:18:00,39.5,34.2,29.63,WNW,302,1.0,3.0,81,0.00,,,0.00,Wunderground v.1.15,2013-02-24 07:18:00,
2013-02-23 23:23:00,39.6,34.2,29.63,WNW,284,2.0,3.0,81,0.00,,,0.00,Wunderground v.1.15,2013-02-24 07:23:00,
2013-02-23 23:29:00,39.8,34.4,29.64,NW,306,1.0,3.0,81,0.00,,,0.00,Wunderground v.1.15,2013-02-24 07:29:00,
2013-02-23 23:34:00,39.8,34.8,29.64,NE,44,1.0,3.0,82,0.00,,,0.00,Wunderground v.1.15,2013-02-24 07:34:00,
2013-02-23 23:40:00,39.9,34.5,29.64,NNW,344,0.0,3.0,81,0.00,,,0.00,Wunderground v.1.15,2013-02-24 07:40:00,
2013-02-23 23:46:00,40.0,34.3,29.64,SE,126,0.0,3.0,80,0.00,,,0.00,Wunderground v.1.15,2013-02-24 07:46:00,
2013-02-23 23:52:00,40.0,34.0,29.64,SE,144,0.0,3.0,79,0.00,,,0.00,Wunderground v.1.15,2013-02-24 07:52:00,